Time;durP1;ratioP1;P1;durP2;ratioP2;P2;SDS_P1;SDS_P2;PMS_P1;PMS_P2;Temp;Humidity;BMP_temperature;BMP_pressure;BME280_temperature;BME280_humidity;BME280_pressure;Samples;Min_cycle;Max_cycle;Signal;HPM_P1;HPM_P2
2023/10/03 00:03:48;;;;;;;;;;;;;;;13.32;100.00;96037.00;10526963;28;1910;-73
2023/10/03 00:08:51;;;;;;;;;;;;;;;13.25;100.00;96026.53;10528998;28;2772;-72
2023/10/03 00:13:54;;;;;;;;;;;;;;;13.23;100.00;96013.34;10528065;28;1917;-74
2023/10/03 00:18:56;;;;;;;;;;;;;;;13.25;100.00;96021.16;10521615;28;2226;-74
2023/10/03 00:24:00;;;;;;;;;;;;;;;13.20;100.00;96013.06;10525713;28;2057;-76
2023/10/03 00:29:04;;;;;;;;;;;;;;;13.15;100.00;96015.78;10526339;28;1943;-74
2023/10/03 00:34:07;;;;;;;;;;;;;;;13.12;100.00;96010.97;10523370;28;1992;-73
2023/10/03 00:39:10;;;;;;;;;;;;;;;13.07;100.00;96002.94;10526173;28;1950;-73
2023/10/03 00:44:12;;;;;;;;;;;;;;;13.06;100.00;96001.31;10522871;28;4793;-73
2023/10/03 00:49:15;;;;;;;;;;;;;;;13.05;100.00;95999.72;10525521;28;1987;-74
2023/10/03 00:54:19;;;;;;;;;;;;;;;13.01;100.00;95987.88;10528184;28;2548;-73
2023/10/03 00:59:22;;;;;;;;;;;;;;;13.08;100.00;95991.84;10519562;28;2003;-72
2023/10/03 01:04:26;;;;;;;;;;;;;;;13.08;100.00;95985.63;10522722;28;2241;-72
2023/10/03 01:09:33;;;;;;;;;;;;;;;13.21;100.00;95987.69;10519557;28;1944;-74
2023/10/03 01:14:36;;;;;;;;;;;;;;;13.17;100.00;95984.75;10516996;28;1965;-73
2023/10/03 01:19:40;;;;;;;;;;;;;;;13.11;100.00;95985.09;10519087;28;2044;-75
2023/10/03 01:24:44;;;;;;;;;;;;;;;13.19;100.00;95973.66;10524223;28;2077;-73
2023/10/03 01:29:46;;;;;;;;;;;;;;;13.10;100.00;95975.34;10526740;28;1975;-72
2023/10/03 01:34:50;;;;;;;;;;;;;;;13.12;100.00;95974.00;10519471;28;1949;-74
2023/10/03 01:39:53;;;;;;;;;;;;;;;13.08;100.00;95964.84;10513480;28;2674;-74
2023/10/03 01:44:55;;;;;;;;;;;;;;;13.11;100.00;95956.19;10520438;28;4682;-74
2023/10/03 01:49:59;;;;;;;;;;;;;;;13.10;100.00;95953.75;10516155;28;1940;-74
2023/10/03 01:55:02;;;;;;;;;;;;;;;13.18;100.00;95953.16;10521487;28;1985;-72
2023/10/03 02:00:18;;;;;;;;;;;;;;;13.21;100.00;95948.00;10518832;28;1980;-72
2023/10/03 02:05:21;;;;;;;;;;;;;;;13.32;100.00;95934.41;10518078;28;1957;-74
2023/10/03 02:10:26;;;;;;;;;;;;;;;13.29;100.00;95929.56;10518886;28;2079;-74
2023/10/03 02:15:28;;;;;;;;;;;;;;;13.25;100.00;95934.75;10514511;28;1978;-74
2023/10/03 02:20:30;;;;;;;;;;;;;;;13.32;100.00;95921.72;10515996;28;1900;-73
2023/10/03 02:25:36;;;;;;;;;;;;;;;13.20;100.00;95926.69;10523209;28;2010;-75
2023/10/03 02:30:38;;;;;;;;;;;;;;;13.20;100.00;95921.28;10521958;28;2111;-73
2023/10/03 02:35:42;;;;;;;;;;;;;;;13.21;100.00;95912.13;10518474;28;2122;-73
2023/10/03 02:40:45;;;;;;;;;;;;;;;13.12;100.00;95903.81;10515626;28;4694;-73
2023/10/03 02:45:47;;;;;;;;;;;;;;;13.17;100.00;95897.56;10517255;28;1972;-74
2023/10/03 02:50:50;;;;;;;;;;;;;;;13.18;100.00;95894.59;10515196;28;2040;-73
2023/10/03 02:55:54;;;;;;;;;;;;;;;13.08;100.00;95896.56;10515384;28;1979;-73
2023/10/03 03:00:56;;;;;;;;;;;;;;;13.05;100.00;95886.38;10518735;28;2252;-74
2023/10/03 03:05:59;;;;;;;;;;;;;;;13.11;100.00;95879.84;10524148;28;2213;-73
2023/10/03 03:11:01;;;;;;;;;;;;;;;13.06;100.00;95877.97;10522973;28;2039;-73
2023/10/03 03:16:04;;;;;;;;;;;;;;;13.10;100.00;95876.28;10524696;28;1992;-74
2023/10/03 03:21:08;;;;;;;;;;;;;;;13.10;100.00;95875.50;10521667;28;2037;-74
2023/10/03 03:26:17;;;;;;;;;;;;;;;13.10;100.00;95879.00;10518285;28;2695;-74
2023/10/03 03:31:22;;;;;;;;;;;;;;;13.09;100.00;95884.69;10524255;28;2111;-73
2023/10/03 03:36:29;;;;;;;;;;;;;;;13.05;100.00;95880.97;10525546;28;1968;-76
2023/10/03 03:41:32;;;;;;;;;;;;;;;12.98;100.00;95879.41;10521997;28;4698;-72
2023/10/03 03:46:34;;;;;;;;;;;;;;;12.92;100.00;95888.66;10520995;28;1957;-75
2023/10/03 03:51:37;;;;;;;;;;;;;;;13.01;100.00;95886.13;10522261;28;1953;-75
2023/10/03 03:56:40;;;;;;;;;;;;;;;12.88;100.00;95886.81;10518688;28;2012;-72
2023/10/03 04:01:43;;;;;;;;;;;;;;;12.82;100.00;95872.56;10530279;28;1971;-73
2023/10/03 04:06:46;;;;;;;;;;;;;;;12.81;100.00;95870.94;10523991;28;1913;-72
2023/10/03 04:11:48;;;;;;;;;;;;;;;12.78;100.00;95874.19;10526465;28;2626;-74
2023/10/03 04:16:51;;;;;;;;;;;;;;;12.77;100.00;95867.22;10519214;28;2021;-72
2023/10/03 04:21:54;;;;;;;;;;;;;;;12.78;100.00;95865.31;10520751;28;1964;-73
2023/10/03 04:26:58;;;;;;;;;;;;;;;12.77;100.00;95871.81;10520132;28;1960;-73
2023/10/03 04:32:01;;;;;;;;;;;;;;;12.78;100.00;95870.72;10518495;28;1992;-72
2023/10/03 04:37:05;;;;;;;;;;;;;;;12.91;100.00;95870.03;10519428;28;1956;-73
2023/10/03 04:42:10;;;;;;;;;;;;;;;13.01;100.00;95861.84;10520496;28;4753;-73
2023/10/03 04:47:13;;;;;;;;;;;;;;;13.14;100.00;95861.16;10512931;28;1976;-73
2023/10/03 04:52:15;;;;;;;;;;;;;;;13.00;100.00;95857.53;10516532;28;2296;-73
2023/10/03 04:57:18;;;;;;;;;;;;;;;13.11;100.00;95863.63;10516729;28;2517;-72
2023/10/03 05:02:20;;;;;;;;;;;;;;;13.10;100.00;95852.00;10518044;28;2283;-75
2023/10/03 05:07:24;;;;;;;;;;;;;;;13.22;100.00;95859.75;10513723;28;2229;-75
2023/10/03 05:12:27;;;;;;;;;;;;;;;13.28;100.00;95853.19;10520966;28;2188;-73
2023/10/03 05:17:30;;;;;;;;;;;;;;;13.26;100.00;95868.88;10520744;28;1908;-73
2023/10/03 05:22:33;;;;;;;;;;;;;;;13.28;100.00;95869.38;10516868;28;1984;-73
2023/10/03 05:27:36;;;;;;;;;;;;;;;13.28;100.00;95866.69;10516198;28;2150;-72
2023/10/03 05:32:38;;;;;;;;;;;;;;;13.36;100.00;95866.06;10522733;28;1957;-74
2023/10/03 05:37:41;;;;;;;;;;;;;;;13.60;100.00;95876.03;10513754;28;1996;-75
2023/10/03 05:42:45;;;;;;;;;;;;;;;13.61;100.00;95877.63;10517950;28;4837;-72
2023/10/03 05:47:50;;;;;;;;;;;;;;;13.73;100.00;95872.59;10513836;28;2004;-74
2023/10/03 05:52:53;;;;;;;;;;;;;;;14.00;100.00;95869.28;10514580;28;2081;-73
2023/10/03 05:57:55;;;;;;;;;;;;;;;14.11;100.00;95861.78;10519181;28;2008;-73
2023/10/03 06:02:58;;;;;;;;;;;;;;;14.39;100.00;95866.22;10514803;28;2064;-76
2023/10/03 06:08:02;;;;;;;;;;;;;;;14.60;100.00;95861.31;10517078;28;1934;-72
2023/10/03 06:13:05;;;;;;;;;;;;;;;14.83;100.00;95859.56;10519177;28;1972;-75
2023/10/03 06:18:08;;;;;;;;;;;;;;;15.00;100.00;95859.78;10521543;28;1964;-74
2023/10/03 06:23:11;;;;;;;;;;;;;;;15.17;100.00;95858.41;10515753;28;1991;-74
2023/10/03 06:28:13;;;;;;;;;;;;;;;15.41;100.00;95853.56;10518001;28;2641;-72
2023/10/03 06:33:16;;;;;;;;;;;;;;;15.74;100.00;95859.69;10515134;28;1985;-74
2023/10/03 06:38:19;;;;;;;;;;;;;;;15.92;100.00;95857.94;10522627;28;1945;-73
2023/10/03 06:43:22;;;;;;;;;;;;;;;16.16;100.00;95857.69;10521859;28;4590;-74
2023/10/03 06:48:24;;;;;;;;;;;;;;;16.46;100.00;95869.69;10520168;28;2061;-73
2023/10/03 06:53:27;;;;;;;;;;;;;;;16.82;100.00;95877.00;10533386;27;1981;-74
2023/10/03 06:58:30;;;;;;;;;;;;;;;17.27;100.00;95864.91;10521707;28;1964;-72
2023/10/03 07:03:33;;;;;;;;;;;;;;;17.51;100.00;95866.44;10524507;28;1956;-74
2023/10/03 07:08:37;;;;;;;;;;;;;;;17.81;100.00;95862.03;10522756;28;1997;-76
2023/10/03 07:13:39;;;;;;;;;;;;;;;18.00;100.00;95876.16;10525066;28;2560;-74
2023/10/03 07:18:43;;;;;;;;;;;;;;;18.15;100.00;95861.28;10523380;28;2213;-76
2023/10/03 07:23:46;;;;;;;;;;;;;;;18.27;100.00;95875.06;10522755;28;1961;-74
2023/10/03 07:28:48;;;;;;;;;;;;;;;18.40;100.00;95869.78;10522936;28;1987;-76
2023/10/03 07:33:53;;;;;;;;;;;;;;;18.59;100.00;95864.81;10523766;28;1987;-74
2023/10/03 07:38:56;;;;;;;;;;;;;;;18.73;100.00;95873.63;10523708;28;1956;-74
2023/10/03 07:43:59;;;;;;;;;;;;;;;18.92;100.00;95873.25;10520485;28;4665;-75
2023/10/03 07:49:01;;;;;;;;;;;;;;;19.15;100.00;95873.84;10521381;28;1945;-75
2023/10/03 07:54:05;;;;;;;;;;;;;;;19.34;100.00;95881.59;10523118;28;1980;-75
2023/10/03 07:59:08;;;;;;;;;;;;;;;19.55;100.00;95887.16;10520495;28;2601;-73
2023/10/03 08:04:12;;;;;;;;;;;;;;;19.79;100.00;95879.19;10522362;28;2316;-73
2023/10/03 08:09:16;;;;;;;;;;;;;;;19.93;100.00;95885.19;10523264;28;1971;-79
2023/10/03 08:14:19;;;;;;;;;;;;;;;20.24;100.00;95890.28;10521737;28;2190;-74
2023/10/03 08:19:22;;;;;;;;;;;;;;;20.65;100.00;95887.91;10523509;28;2033;-73
2023/10/03 08:24:25;;;;;;;;;;;;;;;20.79;100.00;95891.94;10521944;28;2362;-74
2023/10/03 08:29:28;;;;;;;;;;;;;;;20.95;100.00;95889.38;10519717;28;1973;-76
2023/10/03 08:34:30;;;;;;;;;;;;;;;21.25;100.00;95891.97;10532061;28;1976;-75
2023/10/03 08:39:33;;;;;;;;;;;;;;;21.47;100.00;95897.03;10523845;28;1966;-75
2023/10/03 08:44:37;;;;;;;;;;;;;;;21.46;100.00;95892.69;10523316;28;4690;-75
2023/10/03 08:49:39;;;;;;;;;;;;;;;21.66;100.00;95899.22;10517399;28;1980;-75
2023/10/03 08:54:43;;;;;;;;;;;;;;;21.68;100.00;95901.59;10518522;28;1977;-75
2023/10/03 08:59:46;;;;;;;;;;;;;;;22.01;100.00;95910.50;10516232;28;2033;-75
2023/10/03 09:04:49;;;;;;;;;;;;;;;22.31;100.00;95907.50;10516462;28;1973;-74
2023/10/03 09:09:52;;;;;;;;;;;;;;;22.44;100.00;95911.81;10512959;28;2000;-76
2023/10/03 09:14:55;;;;;;;;;;;;;;;22.45;100.00;95902.44;10517603;28;1989;-75
2023/10/03 09:20:04;;;;;;;;;;;;;;;22.58;100.00;95906.75;10514180;28;1991;-76
2023/10/03 09:25:07;;;;;;;;;;;;;;;22.71;98.79;95898.47;10515765;28;1957;-75
2023/10/03 09:30:10;;;;;;;;;;;;;;;22.94;91.20;95888.59;10516143;28;2749;-76
2023/10/03 09:35:13;;;;;;;;;;;;;;;23.24;94.20;95878.06;10517116;28;1993;-74
2023/10/03 09:40:18;;;;;;;;;;;;;;;23.29;91.84;95877.00;10520601;28;1974;-75
2023/10/03 09:45:25;;;;;;;;;;;;;;;23.46;87.27;95877.44;10512298;28;2406;-76
2023/10/03 09:50:28;;;;;;;;;;;;;;;23.68;85.86;95870.56;10518752;28;1956;-75
2023/10/03 09:55:40;;;;;;;;;;;;;;;23.55;88.90;95869.03;10511205;28;1956;-75
2023/10/03 10:00:50;;;;;;;;;;;;;;;24.00;79.19;95865.03;10516553;28;1956;-76
2023/10/03 10:05:59;;;;;;;;;;;;;;;23.92;77.62;95864.09;10518021;28;1980;-75
2023/10/03 10:11:07;;;;;;;;;;;;;;;24.09;81.17;95860.13;10523189;28;2533;-76
2023/10/03 10:16:13;;;;;;;;;;;;;;;23.87;76.51;95860.81;10526279;28;1991;-76
2023/10/03 10:21:16;;;;;;;;;;;;;;;24.07;77.87;95856.94;10525884;28;2116;-75
2023/10/03 10:26:20;;;;;;;;;;;;;;;24.09;79.77;95862.88;10528490;28;1956;-76
2023/10/03 10:31:24;;;;;;;;;;;;;;;24.41;75.17;95851.81;10528709;28;2284;-76
2023/10/03 10:36:27;;;;;;;;;;;;;;;24.52;76.72;95844.59;10522267;28;1953;-76
2023/10/03 10:41:31;;;;;;;;;;;;;;;24.68;72.51;95839.00;10523539;28;4701;-74
2023/10/03 10:46:33;;;;;;;;;;;;;;;24.54;74.90;95845.03;10520793;28;1975;-75
2023/10/03 10:51:36;;;;;;;;;;;;;;;24.66;70.36;95841.34;10525008;28;2075;-75
2023/10/03 10:56:38;;;;;;;;;;;;;;;24.73;69.25;95834.03;10529034;28;2474;-75
2023/10/03 11:01:42;;;;;;;;;;;;;;;24.74;71.74;95832.84;10525590;28;2071;-77
2023/10/03 11:06:45;;;;;;;;;;;;;;;24.58;74.33;95828.63;10523975;28;2173;-76
2023/10/03 11:11:47;;;;;;;;;;;;;;;24.19;80.40;95829.38;10522008;28;1926;-76
2023/10/03 11:16:50;;;;;;;;;;;;;;;23.96;81.23;95815.53;10523403;28;1953;-76
2023/10/03 11:21:52;;;;;;;;;;;;;;;23.87;80.11;95798.47;10521570;28;1984;-74
2023/10/03 11:26:55;;;;;;;;;;;;;;;23.86;81.09;95801.56;10519473;28;1914;-76
2023/10/03 11:31:58;;;;;;;;;;;;;;;24.04;77.39;95791.75;10524531;28;1949;-75
2023/10/03 11:37:02;;;;;;;;;;;;;;;24.18;75.25;95789.34;10522690;28;1971;-76
2023/10/03 11:42:05;;;;;;;;;;;;;;;24.32;72.83;95774.28;10522908;28;4746;-78
2023/10/03 11:47:08;;;;;;;;;;;;;;;24.66;70.01;95767.91;10519195;28;2188;-77
2023/10/03 11:52:11;;;;;;;;;;;;;;;25.04;62.84;95763.50;10522072;28;2074;-78
2023/10/03 11:57:13;;;;;;;;;;;;;;;24.88;67.97;95760.09;10524020;28;1987;-76
2023/10/03 12:02:16;;;;;;;;;;;;;;;24.92;65.16;95760.91;10525962;28;1784;-79
2023/10/03 12:07:19;;;;;;;;;;;;;;;24.77;64.17;95749.69;10516717;28;1938;-78
2023/10/03 12:12:22;;;;;;;;;;;;;;;24.61;65.05;95751.72;10527164;28;1918;-77
2023/10/03 12:17:24;;;;;;;;;;;;;;;24.75;63.20;95746.50;10519459;28;1994;-77
2023/10/03 12:22:27;;;;;;;;;;;;;;;24.92;64.93;95744.41;10522587;28;2247;-78
2023/10/03 12:27:29;;;;;;;;;;;;;;;25.09;63.58;95741.22;10519667;28;2502;-77
2023/10/03 12:32:34;;;;;;;;;;;;;;;25.06;62.12;95733.69;10518830;28;1898;-77
2023/10/03 12:37:37;;;;;;;;;;;;;;;25.10;61.18;95742.00;10513265;28;2110;-78
2023/10/03 12:42:40;;;;;;;;;;;;;;;25.11;64.30;95735.34;10555520;27;4811;-78
2023/10/03 12:47:47;;;;;;;;;;;;;;;25.17;62.90;95731.91;10522125;28;1870;-77
2023/10/03 12:52:49;;;;;;;;;;;;;;;25.00;62.17;95724.13;10520857;28;1935;-76
2023/10/03 12:57:54;;;;;;;;;;;;;;;25.36;56.30;95738.50;10524395;28;2131;-76
2023/10/03 13:02:57;;;;;;;;;;;;;;;25.43;54.97;95738.59;10520230;28;1894;-80
2023/10/03 13:08:00;;;;;;;;;;;;;;;25.38;55.17;95739.69;10513892;28;1932;-78
2023/10/03 13:13:04;;;;;;;;;;;;;;;25.30;58.24;95727.00;10523014;28;2739;-77
2023/10/03 13:18:06;;;;;;;;;;;;;;;25.39;57.22;95724.81;10518182;28;1917;-78
2023/10/03 13:23:10;;;;;;;;;;;;;;;25.31;58.04;95729.38;10510041;28;1826;-79
2023/10/03 13:28:14;;;;;;;;;;;;;;;25.33;58.31;95724.31;10519327;28;1895;-78
2023/10/03 13:33:16;;;;;;;;;;;;;;;25.40;56.81;95711.84;10511739;28;1866;-77
2023/10/03 13:38:19;;;;;;;;;;;;;;;25.54;54.45;95706.53;10518432;28;2030;-75
2023/10/03 13:43:27;;;;;;;;;;;;;;;25.44;53.60;95710.69;10514038;28;4564;-75
2023/10/03 13:48:29;;;;;;;;;;;;;;;25.28;54.93;95697.13;10511945;28;1862;-76
2023/10/03 13:53:32;;;;;;;;;;;;;;;25.50;54.25;95719.44;10515710;28;1906;-73
2023/10/03 13:58:34;;;;;;;;;;;;;;;25.38;56.28;95717.69;10519673;28;2383;-73
2023/10/03 14:03:38;;;;;;;;;;;;;;;25.33;57.61;95727.06;10519667;28;1846;-74
2023/10/03 14:08:41;;;;;;;;;;;;;;;25.37;59.29;95721.59;10518752;28;1855;-75
2023/10/03 14:13:43;;;;;;;;;;;;;;;25.19;62.40;95731.53;10516047;28;1925;-74
2023/10/03 14:18:46;;;;;;;;;;;;;;;25.16;64.38;95724.81;10517561;28;1914;-76
2023/10/03 14:23:51;;;;;;;;;;;;;;;25.11;66.62;95730.63;10537882;28;1894;-79
2023/10/03 14:28:55;;;;;;;;;;;;;;;25.07;66.69;95735.28;10543897;28;1918;-76
2023/10/03 14:33:57;;;;;;;;;;;;;;;24.90;71.03;95742.03;10555833;28;1858;-77
2023/10/03 14:39:00;;;;;;;;;;;;;;;24.81;74.96;95744.22;10538363;28;1910;-77
2023/10/03 14:44:05;;;;;;;;;;;;;;;24.69;77.65;95739.72;10531030;28;4585;-76
2023/10/03 14:49:07;;;;;;;;;;;;;;;24.47;80.42;95756.97;10532519;28;1887;-76
2023/10/03 14:54:11;;;;;;;;;;;;;;;24.30;82.01;95749.13;10528171;28;1833;-77
2023/10/03 14:59:13;;;;;;;;;;;;;;;23.94;88.22;95757.44;10531669;28;1971;-77
2023/10/03 15:04:17;;;;;;;;;;;;;;;23.81;90.92;95757.94;10537882;28;1835;-78
2023/10/03 15:09:20;;;;;;;;;;;;;;;23.76;93.65;95761.75;10546189;28;1851;-77
2023/10/03 15:14:24;;;;;;;;;;;;;;;23.94;93.11;95775.88;10548217;28;2020;-77
2023/10/03 15:19:28;;;;;;;;;;;;;;;23.82;96.20;95782.28;10541822;28;2037;-77
2023/10/03 15:24:31;;;;;;;;;;;;;;;23.70;98.15;95782.38;10549867;28;2001;-78
2023/10/03 15:29:33;;;;;;;;;;;;;;;23.54;100.00;95779.66;10555934;28;2506;-76
2023/10/03 15:34:38;;;;;;;;;;;;;;;23.44;100.00;95788.41;10553999;28;1874;-77
2023/10/03 15:39:40;;;;;;;;;;;;;;;23.38;100.00;95800.81;10554227;28;1922;-76
2023/10/03 15:44:43;;;;;;;;;;;;;;;23.24;100.00;95806.75;10550970;28;4783;-76
2023/10/03 15:50:06;;;;;;;;;;;;;;;23.09;100.00;95800.09;10547464;28;1855;-77
2023/10/03 15:55:10;;;;;;;;;;;;;;;23.00;100.00;95804.16;10552305;28;2151;-76
2023/10/03 16:00:14;;;;;;;;;;;;;;;22.93;100.00;95811.06;10546259;28;1890;-76
2023/10/03 16:05:18;;;;;;;;;;;;;;;22.91;100.00;95821.59;10531616;28;1928;-77
2023/10/03 16:10:20;;;;;;;;;;;;;;;22.78;100.00;95824.72;10527870;28;1851;-78
2023/10/03 16:15:23;;;;;;;;;;;;;;;22.66;100.00;95831.84;10528892;28;2763;-78
2023/10/03 16:20:27;;;;;;;;;;;;;;;22.58;100.00;95834.72;10554445;27;1936;-76
2023/10/03 16:25:30;;;;;;;;;;;;;;;22.34;100.00;95825.47;10526163;28;1475;-77
2023/10/03 16:30:33;;;;;;;;;;;;;;;22.27;100.00;95838.97;10527965;28;1854;-74
2023/10/03 16:35:36;;;;;;;;;;;;;;;22.13;100.00;95847.53;10526564;28;1965;-77
2023/10/03 16:40:39;;;;;;;;;;;;;;;22.03;100.00;95848.00;10523608;28;4770;-76
2023/10/03 16:45:41;;;;;;;;;;;;;;;21.93;100.00;95858.59;10531696;28;1862;-77
2023/10/03 16:50:44;;;;;;;;;;;;;;;21.85;100.00;95880.28;10527409;28;1586;-77
2023/10/03 16:55:46;;;;;;;;;;;;;;;21.93;100.00;95886.78;10525113;28;1969;-77
2023/10/03 17:00:49;;;;;;;;;;;;;;;21.89;100.00;95918.72;10525520;28;2428;-76
2023/10/03 17:05:52;;;;;;;;;;;;;;;21.93;100.00;95902.41;10529627;28;1505;-77
2023/10/03 17:10:55;;;;;;;;;;;;;;;21.89;100.00;95926.13;10529267;28;1510;-79
2023/10/03 17:15:57;;;;;;;;;;;;;;;21.75;100.00;95918.25;10533420;28;1906;-79
2023/10/03 17:21:00;;;;;;;;;;;;;;;21.48;100.00;95939.66;10530105;28;1591;-74
2023/10/03 17:26:07;;;;;;;;;;;;;;;21.42;100.00;95949.19;10524575;28;1521;-72
2023/10/03 17:31:09;;;;;;;;;;;;;;;21.37;100.00;95952.16;10523843;28;2134;-78
2023/10/03 17:36:12;;;;;;;;;;;;;;;21.31;100.00;95953.50;10528150;28;2003;-78
2023/10/03 17:41:14;;;;;;;;;;;;;;;21.18;100.00;95987.38;10527868;28;4704;-78
2023/10/03 17:46:17;;;;;;;;;;;;;;;20.98;100.00;96027.25;10527462;28;2422;-78
2023/10/03 17:51:19;;;;;;;;;;;;;;;20.44;100.00;96047.06;10522555;28;1512;-78
2023/10/03 17:56:22;;;;;;;;;;;;;;;20.11;100.00;96063.28;10527009;28;2247;-78
2023/10/03 18:01:24;;;;;;;;;;;;;;;20.06;100.00;96073.56;10527537;28;1878;-79
2023/10/03 18:06:27;;;;;;;;;;;;;;;20.12;100.00;96083.19;10528143;28;1568;-79
2023/10/03 18:11:30;;;;;;;;;;;;;;;20.20;100.00;96085.06;10523352;28;1899;-74
2023/10/03 18:16:32;;;;;;;;;;;;;;;20.24;100.00;96097.75;10522900;28;1918;-72
2023/10/03 18:21:34;;;;;;;;;;;;;;;20.39;100.00;96107.31;10521743;28;1894;-76
2023/10/03 18:26:37;;;;;;;;;;;;;;;20.43;100.00;96175.72;10529476;28;2087;-75
2023/10/03 18:31:40;;;;;;;;;;;;;;;19.67;100.00;96225.44;10521939;28;2151;-77
2023/10/03 18:36:43;;;;;;;;;;;;;;;19.06;100.00;96251.75;10534213;28;1933;-76
2023/10/03 18:41:45;;;;;;;;;;;;;;;18.39;100.00;96254.66;10525217;28;4712;-75
2023/10/03 18:46:48;;;;;;;;;;;;;;;18.09;100.00;96282.31;10530383;28;2591;-78
2023/10/03 18:51:50;;;;;;;;;;;;;;;17.18;100.00;96322.38;10525655;28;1886;-74
2023/10/03 18:56:52;;;;;;;;;;;;;;;16.67;100.00;96326.81;10517190;28;1914;-73
2023/10/03 19:01:55;;;;;;;;;;;;;;;16.69;100.00;96349.03;10524206;28;1908;-77
2023/10/03 19:06:59;;;;;;;;;;;;;;;16.79;100.00;96355.41;10530570;28;1982;-75
2023/10/03 19:12:03;;;;;;;;;;;;;;;16.91;100.00;96375.53;10531519;28;1902;-75
2023/10/03 19:17:07;;;;;;;;;;;;;;;16.97;100.00;96392.53;10528674;28;1975;-75
2023/10/03 19:22:09;;;;;;;;;;;;;;;16.96;100.00;96393.66;10532664;28;1898;-77
2023/10/03 19:27:12;;;;;;;;;;;;;;;16.86;100.00;96420.97;10533640;28;1858;-76
2023/10/03 19:32:16;;;;;;;;;;;;;;;16.85;100.00;96422.09;10530838;28;2388;-76
2023/10/03 19:37:18;;;;;;;;;;;;;;;16.70;100.00;96440.25;10533101;28;1935;-76
2023/10/03 19:42:21;;;;;;;;;;;;;;;16.63;100.00;96453.38;10530817;28;4562;-76
2023/10/03 19:47:24;;;;;;;;;;;;;;;16.58;100.00;96458.06;10534780;28;1842;-77
2023/10/03 19:52:26;;;;;;;;;;;;;;;16.44;100.00;96474.28;10536029;28;1559;-78
2023/10/03 19:57:29;;;;;;;;;;;;;;;16.46;100.00;96496.50;10537663;28;1910;-78
2023/10/03 20:02:31;;;;;;;;;;;;;;;16.40;100.00;96503.09;10527168;28;1864;-77
2023/10/03 20:07:35;;;;;;;;;;;;;;;16.23;100.00;96521.78;10532901;28;1491;-78
2023/10/03 20:12:37;;;;;;;;;;;;;;;16.07;100.00;96537.44;10536625;28;1542;-77
2023/10/03 20:17:40;;;;;;;;;;;;;;;15.96;100.00;96558.44;10535938;28;2679;-77
2023/10/03 20:22:42;;;;;;;;;;;;;;;15.84;100.00;96571.56;10539887;28;1537;-76
2023/10/03 20:27:46;;;;;;;;;;;;;;;15.70;100.00;96576.06;10541323;28;1695;-78
2023/10/03 20:32:49;;;;;;;;;;;;;;;15.68;100.00;96582.59;10533240;28;1868;-78
2023/10/03 20:37:53;;;;;;;;;;;;;;;15.56;100.00;96575.91;10528610;28;2005;-76
2023/10/03 20:42:55;;;;;;;;;;;;;;;15.51;100.00;96579.47;10528799;28;1434;-78
2023/10/03 20:47:58;;;;;;;;;;;;;;;15.40;100.00;96607.75;10532265;28;1645;-77
2023/10/03 20:53:01;;;;;;;;;;;;;;;15.34;100.00;96636.00;10532432;28;1572;-78
2023/10/03 20:58:03;;;;;;;;;;;;;;;15.28;100.00;96661.50;10530830;28;1917;-78
2023/10/03 21:03:05;;;;;;;;;;;;;;;15.29;100.00;96690.19;10526689;28;2694;-78
2023/10/03 21:08:08;;;;;;;;;;;;;;;15.35;100.00;96710.75;10524846;28;1558;-78
2023/10/03 21:13:12;;;;;;;;;;;;;;;15.19;100.00;96722.75;10524728;28;1498;-78
2023/10/03 21:18:15;;;;;;;;;;;;;;;14.93;100.00;96730.19;10519203;28;1981;-77
2023/10/03 21:23:18;;;;;;;;;;;;;;;14.77;100.00;96743.00;10524055;28;1398;-77
2023/10/03 21:28:20;;;;;;;;;;;;;;;14.71;100.00;96752.22;10525157;28;1463;-77
2023/10/03 21:33:22;;;;;;;;;;;;;;;14.63;100.00;96763.59;10523387;28;1902;-78
2023/10/03 21:38:25;;;;;;;;;;;;;;;14.47;100.00;96766.34;10520076;28;2009;-77
2023/10/03 21:43:27;;;;;;;;;;;;;;;14.28;100.00;96774.19;10523055;28;4663;-77
2023/10/03 21:48:30;;;;;;;;;;;;;;;14.26;100.00;96779.06;10521026;28;2734;-76
2023/10/03 21:53:32;;;;;;;;;;;;;;;14.20;100.00;96776.63;10525087;28;1882;-77
2023/10/03 21:58:35;;;;;;;;;;;;;;;14.18;100.00;96773.38;10522947;28;2067;-75
2023/10/03 22:03:40;;;;;;;;;;;;;;;14.19;100.00;96773.13;10519277;28;2013;-77
2023/10/03 22:08:43;;;;;;;;;;;;;;;14.19;100.00;96753.38;10520922;28;1891;-77
2023/10/03 22:13:46;;;;;;;;;;;;;;;14.19;100.00;96772.31;10522884;28;1882;-77
2023/10/03 22:18:49;;;;;;;;;;;;;;;14.06;100.00;96770.97;10521222;28;1918;-77
2023/10/03 22:23:51;;;;;;;;;;;;;;;14.00;100.00;96780.97;10524742;28;2006;-77
2023/10/03 22:28:54;;;;;;;;;;;;;;;13.89;100.00;96775.84;10529540;28;1886;-77
2023/10/03 22:33:57;;;;;;;;;;;;;;;13.82;100.00;96776.09;10513639;28;2528;-73
2023/10/03 22:38:59;;;;;;;;;;;;;;;13.68;100.00;96794.75;10520197;28;1906;-74
2023/10/03 22:44:03;;;;;;;;;;;;;;;13.59;100.00;96799.03;10517147;28;1893;-72
2023/10/03 22:49:07;;;;;;;;;;;;;;;13.63;100.00;96799.31;10514708;28;1878;-73
2023/10/03 22:54:10;;;;;;;;;;;;;;;13.61;100.00;96812.25;10513664;28;1885;-73
2023/10/03 22:59:12;;;;;;;;;;;;;;;13.47;100.00;96820.88;10510552;28;2197;-73
2023/10/03 23:04:15;;;;;;;;;;;;;;;13.44;100.00;96810.63;10519279;28;2113;-73
2023/10/03 23:09:18;;;;;;;;;;;;;;;13.37;100.00;96818.16;10508157;28;1996;-75
2023/10/03 23:14:21;;;;;;;;;;;;;;;13.31;100.00;96821.94;10516071;28;2206;-74
2023/10/03 23:19:24;;;;;;;;;;;;;;;13.22;100.00;96810.00;10516203;28;2555;-76
2023/10/03 23:24:27;;;;;;;;;;;;;;;13.10;100.00;96822.88;10524782;28;2205;-76
2023/10/03 23:29:31;;;;;;;;;;;;;;;13.06;100.00;96828.00;10529710;28;2124;-75
2023/10/03 23:34:36;;;;;;;;;;;;;;;13.17;100.00;96842.38;10527582;28;1917;-75
2023/10/03 23:39:38;;;;;;;;;;;;;;;13.07;100.00;96824.22;10521985;28;1901;-78
2023/10/03 23:44:43;;;;;;;;;;;;;;;13.17;100.00;96835.09;10527532;28;4730;-77
2023/10/03 23:49:46;;;;;;;;;;;;;;;13.38;100.00;96836.00;10521044;28;1866;-75
2023/10/03 23:54:50;;;;;;;;;;;;;;;13.51;100.00;96846.28;10520150;28;1931;-74
2023/10/03 23:59:52;;;;;;;;;;;;;;;13.60;100.00;96848.47;10520372;28;1922;-75
